createdAt,value
2022-11-15T00:01:19.213Z,65.17
2022-11-15T00:03:47.916Z,71.93
2022-11-15T00:06:17.425Z,66.40
2022-11-15T00:08:45.586Z,73.80
2022-11-15T00:11:14.787Z,77.80
2022-11-15T00:13:43.188Z,73.40
2022-11-15T00:16:12.222Z,70.20
2022-11-15T00:18:40.723Z,80.70
2022-11-15T00:21:11.561Z,71.50
2022-11-15T00:23:41.094Z,73.00
2022-11-15T00:26:10.009Z,75.43
2022-11-15T00:28:38.110Z,83.20
2022-11-15T00:31:08.169Z,97.40
2022-11-15T00:33:36.573Z,64.83
2022-11-15T00:36:05.788Z,77.77
2022-11-15T00:38:34.845Z,73.37
2022-11-15T00:41:09.546Z,76.37
2022-11-15T00:43:40.848Z,78.63
2022-11-15T00:46:10.815Z,80.73
2022-11-15T00:48:39.324Z,75.40
2022-11-15T00:51:07.623Z,80.40
2022-11-15T00:53:35.897Z,80.70
2022-11-15T00:56:05.608Z,80.53
2022-11-15T00:58:33.739Z,76.70
2022-11-15T01:01:09.040Z,86.47
2022-11-15T01:03:37.592Z,77.80
2022-11-15T01:06:06.220Z,85.07
2022-11-15T01:08:34.525Z,87.57
2022-11-15T01:11:05.268Z,75.03
2022-11-15T01:13:34.438Z,86.43
2022-11-15T01:16:08.700Z,86.57
2022-11-15T01:18:36.799Z,85.37
2022-11-15T01:21:08.585Z,79.57
2022-11-15T01:23:37.027Z,88.67
2022-11-15T01:26:08.976Z,80.93
2022-11-15T01:28:39.573Z,83.07
2022-11-15T01:31:09.375Z,79.03
2022-11-15T01:33:37.985Z,95.03
2022-11-15T01:36:07.096Z,91.63
2022-11-15T01:38:35.434Z,89.53
2022-11-15T01:41:03.583Z,86.47
2022-11-15T01:43:35.140Z,95.97
2022-11-15T01:46:08.116Z,93.73
2022-11-15T01:48:37.319Z,99.57
2022-11-15T01:51:13.790Z,89.13
2022-11-15T01:53:45.719Z,88.77
2022-11-15T01:56:17.686Z,98.20
2022-11-15T01:58:47.851Z,92.07
2022-11-15T02:01:16.644Z,95.87
2022-11-15T02:03:52.640Z,100.90
2022-11-15T02:06:21.560Z,94.10
2022-11-15T02:08:49.745Z,90.43
2022-11-15T02:11:17.839Z,90.37
2022-11-15T02:13:47.571Z,90.23
2022-11-15T02:16:24.276Z,96.80
2022-11-15T02:18:59.318Z,89.30
2022-11-15T02:21:34.522Z,88.37
2022-11-15T02:24:38.586Z,93.67
2022-11-15T02:27:35.779Z,85.17
2022-11-15T02:30:27.030Z,88.47
2022-11-15T02:32:59.674Z,87.90
2022-11-15T02:35:39.632Z,80.10
2022-11-15T02:38:14.628Z,81.73
2022-11-15T02:40:50.434Z,94.53
2022-11-15T02:43:48.142Z,91.27
2022-11-15T02:46:22.894Z,82.97
2022-11-15T02:48:51.398Z,77.77
2022-11-15T02:51:20.541Z,86.33
2022-11-15T02:53:48.746Z,81.17
2022-11-15T02:56:16.885Z,78.60
2022-11-15T02:59:11.999Z,101.03
2022-11-15T03:01:51.855Z,93.17
2022-11-15T03:04:29.279Z,88.10
2022-11-15T03:07:02.803Z,84.03
2022-11-15T03:09:37.192Z,86.57
2022-11-15T03:12:10.033Z,86.03
2022-11-15T03:14:45.203Z,95.37
2022-11-15T03:17:20.113Z,80.57
2022-11-15T03:19:51.582Z,105.30
2022-11-15T03:22:23.174Z,93.77
2022-11-15T03:24:56.358Z,105.77
2022-11-15T03:27:27.755Z,98.60
2022-11-15T03:29:59.540Z,124.03
2022-11-15T03:32:34.049Z,88.73
2022-11-15T03:35:07.362Z,92.67
2022-11-15T03:37:39.444Z,84.93
2022-11-15T03:40:08.717Z,92.57
2022-11-15T03:42:40.928Z,84.03
2022-11-15T03:45:17.327Z,79.47
2022-11-15T03:47:51.403Z,93.27
2022-11-15T03:50:21.874Z,87.83
2022-11-15T03:52:51.269Z,82.67
2022-11-15T03:55:21.720Z,106.17
2022-11-15T03:57:53.281Z,93.87
2022-11-15T04:00:21.510Z,109.87
2022-11-15T04:02:50.975Z,100.77
2022-11-15T04:05:19.333Z,91.50
2022-11-15T04:07:47.442Z,106.63
2022-11-15T04:10:16.309Z,97.33
2022-11-15T04:12:48.229Z,90.97
2022-11-15T04:15:18.472Z,99.13
2022-11-15T04:17:48.514Z,93.17
2022-11-15T04:20:37.302Z,68.70
2022-11-15T04:23:25.317Z,74.87
2022-11-15T04:25:56.060Z,71.73
2022-11-15T04:28:24.793Z,70.93
2022-11-15T04:30:52.973Z,67.50
2022-11-15T04:33:21.420Z,70.13
2022-11-15T04:36:04.996Z,66.27
2022-11-15T04:38:33.204Z,81.43
2022-11-15T04:41:01.448Z,79.13
2022-11-15T04:43:30.018Z,97.00
2022-11-15T04:45:58.488Z,92.03
2022-11-15T04:48:26.608Z,82.83
2022-11-15T04:50:56.099Z,77.63
2022-11-15T04:53:24.299Z,75.60
2022-11-15T04:55:52.404Z,77.83
2022-11-15T04:58:20.508Z,76.70
2022-11-15T05:00:48.704Z,67.70
2022-11-15T05:03:34.432Z,64.13
2022-11-15T05:06:04.281Z,72.10
2022-11-15T05:08:32.399Z,81.37
2022-11-15T05:11:00.521Z,77.53
2022-11-15T05:13:28.798Z,79.30
2022-11-15T05:15:57.096Z,88.50
2022-11-15T05:18:25.203Z,76.07
2022-11-15T05:20:53.328Z,86.80
2022-11-15T05:23:22.807Z,77.23
2022-11-15T05:25:50.897Z,71.37
2022-11-15T05:28:18.998Z,79.07
2022-11-15T05:30:47.093Z,90.17
2022-11-15T05:33:15.182Z,85.20
2022-11-15T05:35:47.195Z,86.13
2022-11-15T05:38:15.318Z,72.23
2022-11-15T05:40:44.837Z,86.73
2022-11-15T05:43:13.200Z,87.40
2022-11-15T05:45:41.315Z,78.07
2022-11-15T05:48:11.562Z,89.57
2022-11-15T05:50:41.769Z,77.40
2022-11-15T05:53:10.237Z,96.77
2022-11-15T05:55:40.294Z,93.50
2022-11-15T05:58:09.913Z,93.77
2022-11-15T06:00:38.205Z,82.30
2022-11-15T06:03:06.313Z,77.90
2022-11-15T06:05:34.415Z,84.27
2022-11-15T06:08:02.693Z,81.50
2022-11-15T06:10:30.774Z,78.53
2022-11-15T06:13:00.164Z,73.87
2022-11-15T06:15:29.670Z,69.47
2022-11-15T06:17:59.492Z,71.00
2022-11-15T06:20:27.863Z,74.47
2022-11-15T06:22:59.999Z,76.07
2022-11-15T06:25:28.902Z,83.00
2022-11-15T06:27:58.643Z,86.93
2022-11-15T06:30:27.674Z,96.00
2022-11-15T06:33:03.555Z,90.57
2022-11-15T06:35:32.832Z,105.43
2022-11-15T06:38:05.798Z,89.70
2022-11-15T06:40:37.331Z,81.43
2022-11-15T06:43:06.449Z,92.40
2022-11-15T06:45:35.059Z,79.77
2022-11-15T06:48:04.650Z,80.17
2022-11-15T06:50:32.751Z,64.87
2022-11-15T06:53:04.030Z,78.10
2022-11-15T06:55:32.281Z,84.67
2022-11-15T06:58:00.390Z,82.40
2022-11-15T07:00:28.531Z,84.93
2022-11-15T07:02:56.650Z,86.27
2022-11-15T07:05:26.143Z,90.33
2022-11-15T07:07:55.303Z,72.43
2022-11-15T07:10:25.214Z,83.90
2022-11-15T07:12:53.733Z,79.50
2022-11-15T07:15:24.110Z,86.07
2022-11-15T07:17:52.278Z,83.53
2022-11-15T07:20:20.585Z,77.17
2022-11-15T07:22:50.129Z,95.77
2022-11-15T07:25:18.454Z,97.70
2022-11-15T07:27:55.813Z,82.27
2022-11-15T07:30:24.104Z,89.50
2022-11-15T07:32:55.246Z,89.60
2022-11-15T07:35:23.502Z,84.43
2022-11-15T07:38:00.901Z,102.23
2022-11-15T07:40:30.765Z,67.47
2022-11-15T07:43:02.103Z,59.00
2022-11-15T07:45:30.817Z,63.93
2022-11-15T07:47:59.286Z,64.30
2022-11-15T07:50:27.696Z,83.80
2022-11-15T07:52:56.738Z,72.33
2022-11-15T07:55:26.929Z,77.77
2022-11-15T07:57:55.201Z,72.17
2022-11-15T08:00:23.336Z,79.17
2022-11-15T08:02:51.503Z,79.23
2022-11-15T08:05:19.711Z,76.00
2022-11-15T08:07:47.805Z,72.87
2022-11-15T08:10:17.821Z,75.67
2022-11-15T08:12:47.413Z,62.90
2022-11-15T08:15:15.698Z,58.47
2022-11-15T08:17:43.802Z,63.90
2022-11-15T08:20:12.897Z,62.20
2022-11-15T08:22:41.027Z,61.70
2022-11-15T08:25:09.463Z,69.80
2022-11-15T08:27:37.601Z,69.90
2022-11-15T08:30:08.457Z,58.47
2022-11-15T08:32:36.655Z,67.60
2022-11-15T08:35:05.147Z,60.83
2022-11-15T08:37:33.236Z,72.97
2022-11-15T08:40:01.485Z,64.43
2022-11-15T08:42:29.607Z,73.23
2022-11-15T08:44:57.731Z,66.50
2022-11-15T08:47:27.495Z,65.70
2022-11-15T08:49:55.707Z,65.00
2022-11-15T08:52:23.984Z,65.80
2022-11-15T08:54:52.107Z,65.40
2022-11-15T08:57:20.444Z,64.10
2022-11-15T08:59:48.571Z,66.10
2022-11-15T09:02:17.096Z,66.20
2022-11-15T09:04:46.835Z,56.33
2022-11-15T09:07:16.027Z,58.87
2022-11-15T09:09:44.370Z,56.23
2022-11-15T09:12:12.623Z,60.17
2022-11-15T09:14:40.798Z,63.23
2022-11-15T09:17:10.594Z,59.63
2022-11-15T09:19:39.004Z,72.53
2022-11-15T09:22:10.039Z,58.27
2022-11-15T09:24:38.171Z,63.27
2022-11-15T09:27:06.282Z,67.67
2022-11-15T09:29:34.878Z,60.73
2022-11-15T09:32:03.010Z,65.80
2022-11-15T09:34:31.107Z,60.70
2022-11-15T09:36:59.260Z,60.73
2022-11-15T09:39:28.756Z,61.93
2022-11-15T09:42:14.361Z,68.73
2022-11-15T09:44:56.442Z,65.53
2022-11-15T09:48:06.030Z,71.40
2022-11-15T09:50:40.882Z,70.67
2022-11-15T09:53:15.042Z,71.17
2022-11-15T09:55:51.102Z,68.87
2022-11-15T09:58:29.339Z,66.40
2022-11-15T10:01:01.030Z,63.37
2022-11-15T10:03:33.611Z,58.07
2022-11-15T10:06:04.130Z,55.50
2022-11-15T10:08:48.347Z,50.93
2022-11-15T10:11:36.731Z,57.83
2022-11-15T10:14:12.750Z,59.63
2022-11-15T10:17:04.121Z,67.90
2022-11-15T10:19:37.746Z,59.27
2022-11-15T10:22:20.102Z,74.13
2022-11-15T10:24:49.074Z,63.37
2022-11-15T10:27:20.198Z,57.57
2022-11-15T10:29:49.845Z,54.13
2022-11-15T10:32:20.440Z,56.47
2022-11-15T10:34:49.149Z,53.57
2022-11-15T10:37:28.921Z,44.97
2022-11-15T10:40:06.014Z,50.23
2022-11-15T10:42:35.583Z,50.50
2022-11-15T10:45:04.114Z,47.97
2022-11-15T10:47:38.954Z,48.73
2022-11-15T10:50:27.112Z,47.60
2022-11-15T10:52:55.743Z,46.83
2022-11-15T10:55:28.345Z,45.30
2022-11-15T10:58:05.733Z,44.40
2022-11-15T11:00:37.364Z,51.10
2022-11-15T11:03:08.274Z,47.13
2022-11-15T11:05:42.260Z,50.17
2022-11-15T11:08:24.321Z,51.23
2022-11-15T11:11:01.301Z,53.80
2022-11-15T11:13:35.210Z,55.20
2022-11-15T11:16:19.508Z,67.07
2022-11-15T11:18:54.176Z,87.17
2022-11-15T11:21:33.018Z,56.17
2022-11-15T11:24:10.842Z,58.20
2022-11-15T11:26:50.600Z,58.10
2022-11-15T11:29:35.248Z,49.07
2022-11-15T11:32:15.977Z,48.97
2022-11-15T11:34:56.481Z,54.03
2022-11-15T11:37:32.972Z,52.77
2022-11-15T11:40:26.424Z,55.40
2022-11-15T11:43:02.528Z,55.23
2022-11-15T11:45:50.879Z,54.23
2022-11-15T11:48:28.237Z,56.53
2022-11-15T11:51:03.138Z,57.70
2022-11-15T11:53:40.079Z,53.70
2022-11-15T11:56:16.940Z,57.47
2022-11-15T11:58:48.159Z,54.63
2022-11-15T12:01:24.380Z,57.70
2022-11-15T12:03:58.979Z,58.27
2022-11-15T12:06:34.335Z,55.77
2022-11-15T12:09:09.187Z,53.70
2022-11-15T12:11:44.564Z,58.47
2022-11-15T12:14:21.728Z,62.83
2022-11-15T12:16:51.235Z,55.43
2022-11-15T12:19:19.369Z,62.07
2022-11-15T12:21:52.665Z,56.93
2022-11-15T12:24:25.255Z,59.53
2022-11-15T12:27:03.904Z,52.67
2022-11-15T12:29:37.557Z,54.50
2022-11-15T12:32:19.191Z,61.67
2022-11-15T12:34:50.742Z,61.07
2022-11-15T12:37:56.253Z,68.57
2022-11-15T12:40:33.815Z,56.80
2022-11-15T12:43:38.658Z,66.47
2022-11-15T12:46:08.402Z,58.53
2022-11-15T12:48:55.949Z,62.73
2022-11-15T12:51:46.655Z,63.13
2022-11-15T12:54:54.462Z,62.03
2022-11-15T12:57:37.570Z,61.30
2022-11-15T13:00:45.186Z,68.43
2022-11-15T13:03:28.325Z,65.07
2022-11-15T13:06:06.927Z,61.60
2022-11-15T13:08:56.242Z,61.67
2022-11-15T13:11:52.673Z,60.83
2022-11-15T13:14:44.354Z,75.37
2022-11-15T13:17:33.765Z,62.73
2022-11-15T13:20:23.002Z,68.43
2022-11-15T13:22:53.335Z,70.30
2022-11-15T13:25:37.846Z,65.97
2022-11-15T13:28:19.465Z,80.80
2022-11-15T13:30:53.546Z,85.43
2022-11-15T13:33:24.931Z,85.20
2022-11-15T13:35:56.247Z,79.10
2022-11-15T13:38:31.716Z,86.50
2022-11-15T13:41:01.609Z,85.50
2022-11-15T13:43:33.974Z,84.67
2022-11-15T13:46:15.469Z,72.77
2022-11-15T13:48:44.609Z,77.93
2022-11-15T13:51:19.630Z,78.53
2022-11-15T13:53:53.906Z,76.70
2022-11-15T13:56:23.077Z,70.73
2022-11-15T13:58:51.353Z,63.97
2022-11-15T14:01:21.802Z,68.03
2022-11-15T14:03:54.148Z,65.57
2022-11-15T14:06:24.501Z,64.43
2022-11-15T14:09:06.744Z,58.17
2022-11-15T14:11:35.201Z,64.47
2022-11-15T14:14:16.688Z,62.03
2022-11-15T14:16:46.480Z,58.50
2022-11-15T14:19:35.185Z,60.03
2022-11-15T14:22:18.690Z,59.17
2022-11-15T14:24:50.011Z,53.13
2022-11-15T14:27:20.112Z,53.67
2022-11-15T14:29:49.161Z,55.30
2022-11-15T14:32:20.178Z,62.10
2022-11-15T14:34:48.621Z,63.20
2022-11-15T14:37:26.393Z,56.60
2022-11-15T14:39:56.685Z,60.20
2022-11-15T14:42:25.666Z,56.90
2022-11-15T14:44:54.085Z,62.00
2022-11-15T14:47:22.320Z,59.43
2022-11-15T14:49:50.492Z,54.07
2022-11-15T14:52:31.900Z,56.57
2022-11-15T14:55:03.426Z,53.87
2022-11-15T14:57:31.935Z,54.23
2022-11-15T15:00:00.095Z,62.97
2022-11-15T15:02:29.482Z,56.73
2022-11-15T15:05:02.057Z,53.43
2022-11-15T15:07:30.320Z,55.33
2022-11-15T15:10:24.488Z,56.13
2022-11-15T15:12:48.048Z,50.60
2022-11-15T15:15:17.818Z,58.50
2022-11-15T15:17:46.180Z,56.47
2022-11-15T15:20:14.296Z,61.57
2022-11-15T15:22:42.419Z,55.43
2022-11-15T15:25:23.837Z,57.27
2022-11-15T15:27:53.332Z,61.53
2022-11-15T15:30:21.625Z,63.77
2022-11-15T15:32:49.873Z,61.23
2022-11-15T15:35:19.354Z,57.33
2022-11-15T15:37:48.827Z,58.90
2022-11-15T15:40:19.083Z,64.10
2022-11-15T15:42:47.188Z,64.20
2022-11-15T15:45:17.568Z,59.53
2022-11-15T15:47:46.371Z,65.20
2022-11-15T15:50:24.256Z,52.73
2022-11-15T15:52:53.014Z,56.73
2022-11-15T15:55:21.229Z,61.53
2022-11-15T15:57:49.875Z,63.57
2022-11-15T16:00:20.890Z,63.60
2022-11-15T16:02:49.262Z,68.93
2022-11-15T16:05:18.362Z,67.47
2022-11-15T16:07:47.424Z,86.67
2022-11-15T16:10:22.151Z,59.57
2022-11-15T16:12:50.726Z,67.00
2022-11-15T16:15:20.910Z,60.07
2022-11-15T16:17:52.133Z,63.43
2022-11-15T16:20:38.208Z,67.30
2022-11-15T16:23:09.892Z,64.37
2022-11-15T16:25:42.902Z,55.07
2022-11-15T16:28:21.653Z,62.53
2022-11-15T16:31:00.663Z,57.67
2022-11-15T16:33:28.888Z,49.90
2022-11-15T16:35:57.074Z,57.27
2022-11-15T16:38:25.193Z,54.70
2022-11-15T16:40:54.139Z,48.70
2022-11-15T16:43:22.790Z,58.03
2022-11-15T16:45:52.718Z,51.10
2022-11-15T16:48:25.329Z,51.80
2022-11-15T16:50:56.958Z,52.10
2022-11-15T16:53:25.182Z,46.63
2022-11-15T16:55:53.313Z,42.20
2022-11-15T16:58:21.560Z,59.03
2022-11-15T17:00:54.396Z,55.50
2022-11-15T17:03:23.036Z,47.20
2022-11-15T17:05:51.646Z,49.97
2022-11-15T17:08:20.932Z,43.73
2022-11-15T17:10:49.124Z,47.90
2022-11-15T17:13:17.235Z,47.87
2022-11-15T17:15:45.369Z,49.13
2022-11-15T17:18:15.771Z,47.53
2022-11-15T17:20:44.478Z,45.17
2022-11-15T17:23:15.585Z,47.47
2022-11-15T17:25:44.104Z,47.50
2022-11-15T17:28:12.476Z,47.50
2022-11-15T17:30:43.452Z,49.20
2022-11-15T17:33:11.580Z,52.53
2022-11-15T17:35:41.072Z,49.10
2022-11-15T17:38:09.185Z,52.07
2022-11-15T17:40:37.295Z,45.40
2022-11-15T17:43:06.864Z,48.20
2022-11-15T17:45:35.252Z,40.97
2022-11-15T17:48:03.797Z,47.53
2022-11-15T17:50:31.931Z,51.47
2022-11-15T17:53:01.891Z,50.30
2022-11-15T17:55:29.992Z,51.60
2022-11-15T17:57:58.190Z,45.93
2022-11-15T18:00:26.396Z,49.87
2022-11-15T18:02:54.520Z,54.87
2022-11-15T18:05:22.657Z,52.03
2022-11-15T18:07:51.552Z,44.13
2022-11-15T18:10:21.132Z,44.10
2022-11-15T18:12:49.235Z,44.70
2022-11-15T18:15:19.149Z,44.63
2022-11-15T18:17:47.258Z,47.90
2022-11-15T18:20:15.469Z,41.93
2022-11-15T18:22:43.586Z,45.80
2022-11-15T18:25:11.736Z,44.57
2022-11-15T18:27:41.203Z,43.10
2022-11-15T18:30:10.540Z,39.93
2022-11-15T18:32:38.632Z,43.47
2022-11-15T18:35:07.889Z,47.93
2022-11-15T18:37:36.170Z,39.30
2022-11-15T18:40:04.596Z,47.97
2022-11-15T18:42:33.109Z,47.13
2022-11-15T18:45:02.968Z,37.93
2022-11-15T18:47:31.794Z,43.77
2022-11-15T18:49:59.895Z,33.40
2022-11-15T18:52:28.041Z,47.27
2022-11-15T18:54:56.165Z,36.47
2022-11-15T18:57:24.257Z,48.53
2022-11-15T18:59:52.354Z,66.67
2022-11-15T19:02:21.854Z,66.53
2022-11-15T19:04:49.969Z,54.37
2022-11-15T19:07:18.109Z,141.97
2022-11-15T19:09:46.758Z,113.67
2022-11-15T19:12:14.863Z,47.87
2022-11-15T19:14:43.170Z,48.03
2022-11-15T19:17:11.263Z,41.87
2022-11-15T19:19:40.750Z,47.83
2022-11-15T19:22:08.885Z,43.83
2022-11-15T19:24:36.981Z,39.33
2022-11-15T19:27:05.165Z,42.43
2022-11-15T19:29:33.251Z,38.57
2022-11-15T19:32:02.209Z,42.17
2022-11-15T19:34:30.308Z,38.80
2022-11-15T19:36:59.774Z,45.50
2022-11-15T19:39:27.877Z,44.77
2022-11-15T19:41:56.182Z,34.47
2022-11-15T19:44:26.369Z,41.83
2022-11-15T19:46:54.494Z,44.80
2022-11-15T19:49:22.572Z,51.10
2022-11-15T19:51:50.717Z,35.80
2022-11-15T19:54:20.226Z,41.17
2022-11-15T19:56:48.345Z,34.50
2022-11-15T19:59:17.409Z,43.63
2022-11-15T20:01:45.713Z,38.43
2022-11-15T20:04:13.840Z,34.93
2022-11-15T20:06:43.425Z,39.03
2022-11-15T20:09:14.164Z,33.00
2022-11-15T20:11:44.150Z,34.67
2022-11-15T20:14:13.227Z,35.43
2022-11-15T20:16:41.689Z,30.33
2022-11-15T20:19:12.302Z,36.63
2022-11-15T20:21:40.703Z,41.70
2022-11-15T20:24:09.350Z,32.90
2022-11-15T20:26:37.453Z,37.87
2022-11-15T20:29:07.168Z,36.83
2022-11-15T20:31:35.497Z,43.00
2022-11-15T20:34:03.689Z,45.20
2022-11-15T20:36:31.816Z,40.90
2022-11-15T20:39:00.535Z,37.27
2022-11-15T20:41:29.277Z,38.03
2022-11-15T20:43:57.395Z,33.33
2022-11-15T20:46:26.916Z,34.87
2022-11-15T20:48:55.019Z,38.23
2022-11-15T20:51:23.161Z,35.23
2022-11-15T20:53:51.570Z,39.00
2022-11-15T20:56:22.200Z,33.03
2022-11-15T20:58:51.283Z,35.03
2022-11-15T21:01:23.544Z,31.93
2022-11-15T21:03:53.997Z,33.57
2022-11-15T21:06:22.243Z,33.33
2022-11-15T21:09:08.132Z,36.47
2022-11-15T21:11:53.932Z,27.90
2022-11-15T21:14:22.299Z,25.33
2022-11-15T21:16:50.425Z,28.37
2022-11-15T21:19:24.112Z,25.97
2022-11-15T21:21:56.424Z,21.63
2022-11-15T21:24:24.793Z,32.37
2022-11-15T21:26:53.123Z,21.77
2022-11-15T21:29:21.459Z,21.90
2022-11-15T21:31:51.388Z,26.17
2022-11-15T21:34:21.287Z,22.83
2022-11-15T21:36:49.407Z,27.63
2022-11-15T21:39:17.504Z,23.73
2022-11-15T21:41:45.631Z,30.23
2022-11-15T21:44:13.764Z,27.23
2022-11-15T21:46:41.863Z,31.93
2022-11-15T21:49:10.355Z,23.87
2022-11-15T21:51:39.953Z,29.03
2022-11-15T21:54:08.127Z,29.27
2022-11-15T21:56:36.881Z,26.63
2022-11-15T21:59:05.050Z,29.63
2022-11-15T22:01:50.448Z,28.23
2022-11-15T22:04:18.730Z,32.43
2022-11-15T22:06:49.090Z,30.33
2022-11-15T22:09:17.358Z,35.17
2022-11-15T22:11:45.668Z,35.57
2022-11-15T22:14:14.108Z,40.40
2022-11-15T22:16:42.416Z,37.47
2022-11-15T22:19:10.702Z,37.27
2022-11-15T22:21:40.171Z,39.70
2022-11-15T22:24:10.206Z,35.50
2022-11-15T22:26:38.542Z,41.60
2022-11-15T22:29:06.846Z,33.93
2022-11-15T22:31:35.129Z,39.60
2022-11-15T22:34:03.443Z,39.17
2022-11-15T22:36:47.004Z,40.77
2022-11-15T22:39:21.454Z,43.83
2022-11-15T22:41:49.770Z,38.60
2022-11-15T22:44:18.073Z,43.00
2022-11-15T22:46:46.381Z,39.60
2022-11-15T22:49:14.675Z,44.70
2022-11-15T22:51:42.980Z,42.13
2022-11-15T22:54:11.295Z,40.00
2022-11-15T22:56:40.996Z,43.27
2022-11-15T22:59:09.352Z,37.60
2022-11-15T23:01:37.659Z,46.83
2022-11-15T23:04:06.273Z,46.93
2022-11-15T23:06:34.671Z,39.70
2022-11-15T23:09:03.080Z,47.03
2022-11-15T23:11:48.614Z,45.23
2022-11-15T23:14:18.309Z,38.60
2022-11-15T23:16:46.606Z,46.07
2022-11-15T23:19:15.082Z,45.47
2022-11-15T23:22:02.776Z,47.57
2022-11-15T23:24:31.734Z,45.10
2022-11-15T23:27:01.627Z,45.10
2022-11-15T23:29:31.975Z,44.77
2022-11-15T23:32:17.800Z,47.03
2022-11-15T23:34:47.394Z,47.70
2022-11-15T23:37:16.602Z,45.27
2022-11-15T23:39:44.938Z,48.77
2022-11-15T23:42:20.170Z,44.27
2022-11-15T23:44:51.086Z,49.80
2022-11-15T23:47:20.095Z,38.50
2022-11-15T23:49:48.702Z,36.07
2022-11-15T23:52:17.374Z,38.57
2022-11-15T23:54:45.837Z,39.17
2022-11-15T23:57:14.139Z,37.53
2022-11-15T23:59:44.183Z,37.00
